createdAt,value
2023-12-14T00:01:25.958Z,4.48
2023-12-14T00:04:28.960Z,4.41
2023-12-14T00:07:31.561Z,4.38
2023-12-14T00:10:35.727Z,4.34
2023-12-14T00:13:38.378Z,4.33
2023-12-14T00:16:41.726Z,4.30
2023-12-14T00:19:44.433Z,4.28
2023-12-14T00:22:47.360Z,4.40
2023-12-14T00:25:50.085Z,4.42
2023-12-14T00:28:58.314Z,4.42
2023-12-14T00:32:04.020Z,4.44
2023-12-14T00:35:07.235Z,4.42
2023-12-14T00:38:10.115Z,4.38
2023-12-14T00:41:13.082Z,4.42
2023-12-14T00:44:15.570Z,4.51
2023-12-14T00:47:18.540Z,4.55
2023-12-14T00:50:20.965Z,4.61
2023-12-14T00:53:23.643Z,4.63
2023-12-14T00:56:26.346Z,4.65
2023-12-14T00:59:30.882Z,4.74
2023-12-14T01:02:33.938Z,4.80
2023-12-14T01:05:36.748Z,4.83
2023-12-14T01:08:39.319Z,4.83
2023-12-14T01:11:41.917Z,4.85
2023-12-14T01:14:44.597Z,4.85
2023-12-14T01:17:47.499Z,4.85
2023-12-14T01:20:50.187Z,4.87
2023-12-14T01:23:53.463Z,4.87
2023-12-14T01:26:55.968Z,4.89
2023-12-14T01:29:58.795Z,4.87
2023-12-14T01:33:01.206Z,4.82
2023-12-14T01:36:04.245Z,4.83
2023-12-14T01:39:06.921Z,4.79
2023-12-14T01:42:09.721Z,4.85
2023-12-14T01:45:14.538Z,4.79
2023-12-14T01:48:17.758Z,4.77
2023-12-14T01:51:20.370Z,4.71
2023-12-14T01:54:22.944Z,4.59
2023-12-14T01:57:25.678Z,4.50
2023-12-14T02:00:32.874Z,4.51
2023-12-14T02:03:35.794Z,4.41
2023-12-14T02:06:38.809Z,4.47
2023-12-14T02:09:41.466Z,4.38
2023-12-14T02:12:43.862Z,4.32
2023-12-14T02:15:46.540Z,4.48
2023-12-14T02:18:49.165Z,4.45
2023-12-14T02:21:52.141Z,4.45
2023-12-14T02:24:54.458Z,4.42
2023-12-14T02:27:57.294Z,4.38
2023-12-14T02:30:59.911Z,4.48
2023-12-14T02:34:02.640Z,4.48
2023-12-14T02:37:05.186Z,4.46
2023-12-14T02:40:08.547Z,4.42
2023-12-14T02:43:11.147Z,4.53
2023-12-14T02:46:16.670Z,4.46
2023-12-14T02:49:19.522Z,4.52
2023-12-14T02:52:22.837Z,4.49
2023-12-14T02:55:25.535Z,4.56
2023-12-14T02:58:28.399Z,4.59
2023-12-14T03:01:30.801Z,4.57
2023-12-14T03:04:33.655Z,4.59
2023-12-14T03:07:36.044Z,4.66
2023-12-14T03:10:38.949Z,4.68
2023-12-14T03:13:41.581Z,4.77
2023-12-14T03:16:44.487Z,4.95
2023-12-14T03:19:47.080Z,4.90
2023-12-14T03:22:49.996Z,4.94
2023-12-14T03:25:52.583Z,4.94
2023-12-14T03:28:55.457Z,4.94
2023-12-14T03:31:58.251Z,5.03
2023-12-14T03:35:01.240Z,4.99
2023-12-14T03:38:03.636Z,4.89
2023-12-14T03:41:06.539Z,4.83
2023-12-14T03:44:09.229Z,4.75
2023-12-14T03:47:12.091Z,4.75
2023-12-14T03:50:14.461Z,4.66
2023-12-14T03:53:17.387Z,4.75
2023-12-14T03:56:19.681Z,4.68
2023-12-14T03:59:22.441Z,4.63
2023-12-14T04:02:24.980Z,4.71
2023-12-14T04:05:27.783Z,4.76
2023-12-14T04:08:30.372Z,4.76
2023-12-14T04:11:33.256Z,4.73
2023-12-14T04:14:35.780Z,4.78
2023-12-14T04:17:38.872Z,4.75
2023-12-14T04:20:41.460Z,4.80
2023-12-14T04:23:44.431Z,4.73
2023-12-14T04:26:47.035Z,4.71
2023-12-14T04:29:49.620Z,4.67
2023-12-14T04:32:53.213Z,4.60
2023-12-14T04:35:55.809Z,4.65
2023-12-14T04:38:58.303Z,4.56
2023-12-14T04:42:00.865Z,4.54
2023-12-14T04:45:03.613Z,4.51
2023-12-14T04:48:06.662Z,4.67
2023-12-14T04:51:12.209Z,4.65
2023-12-14T04:54:14.882Z,4.62
2023-12-14T04:57:17.431Z,4.68
2023-12-14T05:00:20.387Z,4.50
2023-12-14T05:03:22.971Z,4.47
2023-12-14T05:06:25.837Z,4.46
2023-12-14T05:09:29.196Z,4.50
2023-12-14T05:12:32.942Z,4.50
2023-12-14T05:15:35.461Z,4.47
2023-12-14T05:18:38.105Z,4.47
2023-12-14T05:21:40.741Z,4.48
2023-12-14T05:24:45.684Z,4.51
2023-12-14T05:27:48.266Z,4.48
2023-12-14T05:30:50.847Z,4.45
2023-12-14T05:33:53.550Z,4.59
2023-12-14T05:36:56.462Z,4.50
2023-12-14T05:39:59.031Z,4.46
2023-12-14T05:43:01.663Z,4.40
2023-12-14T05:46:04.916Z,4.48
2023-12-14T05:49:07.998Z,4.45
2023-12-14T05:52:11.080Z,4.50
2023-12-14T05:55:14.049Z,4.50
2023-12-14T05:58:16.447Z,4.52
2023-12-14T06:01:19.594Z,4.53
2023-12-14T06:04:22.782Z,4.55
2023-12-14T06:07:25.435Z,4.55
2023-12-14T06:10:28.126Z,4.49
2023-12-14T06:13:30.654Z,4.46
2023-12-14T06:16:33.355Z,4.45
2023-12-14T06:19:35.950Z,4.39
2023-12-14T06:22:39.171Z,4.35
2023-12-14T06:25:41.864Z,4.39
2023-12-14T06:28:44.754Z,4.45
2023-12-14T06:31:47.536Z,4.40
2023-12-14T06:34:52.201Z,4.47
2023-12-14T06:37:55.112Z,4.50
2023-12-14T06:40:58.093Z,4.58
2023-12-14T06:44:00.557Z,4.53
2023-12-14T06:47:03.323Z,4.51
2023-12-14T06:50:06.273Z,4.50
2023-12-14T06:53:09.338Z,4.56
2023-12-14T06:56:12.609Z,4.49
2023-12-14T06:59:16.917Z,4.49
2023-12-14T07:02:19.350Z,4.51
2023-12-14T07:05:22.130Z,4.60
2023-12-14T07:08:26.897Z,4.64
2023-12-14T07:11:30.268Z,4.62
2023-12-14T07:14:32.817Z,4.70
2023-12-14T07:17:35.754Z,4.70
2023-12-14T07:20:38.400Z,4.73
2023-12-14T07:23:41.291Z,4.72
2023-12-14T07:26:43.903Z,4.80
2023-12-14T07:29:46.642Z,4.85
2023-12-14T07:32:49.360Z,4.98
2023-12-14T07:35:52.379Z,5.01
2023-12-14T07:38:55.785Z,5.07
2023-12-14T07:41:58.677Z,5.09
2023-12-14T07:45:01.073Z,5.04
2023-12-14T07:48:05.225Z,5.05
2023-12-14T07:51:07.803Z,5.13
2023-12-14T07:54:10.725Z,5.12
2023-12-14T07:57:13.047Z,5.09
2023-12-14T08:00:16.580Z,5.21
2023-12-14T08:03:19.470Z,5.19
2023-12-14T08:06:22.121Z,5.38
2023-12-14T08:09:24.684Z,5.43
2023-12-14T08:12:27.968Z,5.33
2023-12-14T08:15:31.207Z,5.38
2023-12-14T08:18:33.903Z,5.42
2023-12-14T08:21:36.856Z,5.46
2023-12-14T08:24:39.799Z,5.53
2023-12-14T08:27:43.401Z,5.55
2023-12-14T08:30:46.082Z,5.62
2023-12-14T08:33:51.233Z,5.66
2023-12-14T08:36:54.114Z,5.65
2023-12-14T08:39:57.014Z,5.65
2023-12-14T08:42:59.969Z,5.71
2023-12-14T08:46:02.558Z,5.84
2023-12-14T08:49:05.163Z,5.97
2023-12-14T08:52:07.918Z,5.88
2023-12-14T08:55:10.750Z,5.87
2023-12-14T08:58:13.780Z,5.98
2023-12-14T09:01:23.012Z,6.11
2023-12-14T09:04:25.946Z,6.22
2023-12-14T09:07:29.113Z,6.29
2023-12-14T09:10:32.113Z,6.44
2023-12-14T09:13:34.648Z,6.62
2023-12-14T09:16:38.110Z,6.68
2023-12-14T09:19:40.959Z,6.68
2023-12-14T09:22:43.914Z,6.82
2023-12-14T09:25:46.794Z,6.88
2023-12-14T09:28:49.473Z,6.85
2023-12-14T09:31:52.741Z,6.95
2023-12-14T09:34:57.998Z,7.00
2023-12-14T09:38:00.630Z,7.11
2023-12-14T09:41:03.955Z,7.22
2023-12-14T09:44:08.041Z,7.03
2023-12-14T09:47:11.141Z,7.06
2023-12-14T09:50:16.207Z,7.22
2023-12-14T09:53:19.833Z,7.16
2023-12-14T09:56:22.523Z,7.17
2023-12-14T09:59:25.569Z,7.17
2023-12-14T10:02:28.628Z,7.30
2023-12-14T10:05:34.947Z,7.40
2023-12-14T10:08:37.656Z,7.36
2023-12-14T10:11:44.077Z,7.47
2023-12-14T10:14:46.674Z,7.56
2023-12-14T10:17:55.208Z,7.64
2023-12-14T10:20:58.056Z,7.52
2023-12-14T10:24:00.704Z,7.69
2023-12-14T10:27:08.291Z,7.78
2023-12-14T10:30:13.873Z,7.82
2023-12-14T10:33:17.722Z,7.85
2023-12-14T10:36:23.720Z,7.74
2023-12-14T10:39:27.160Z,7.71
2023-12-14T10:42:30.639Z,7.71
2023-12-14T10:45:34.048Z,7.70
2023-12-14T10:48:38.464Z,7.77
2023-12-14T10:51:45.287Z,7.78
2023-12-14T10:54:51.205Z,7.91
2023-12-14T10:57:54.548Z,7.88
2023-12-14T11:01:02.062Z,7.62
2023-12-14T11:04:04.428Z,7.82
2023-12-14T11:07:07.569Z,7.68
2023-12-14T11:10:10.812Z,7.76
2023-12-14T11:13:15.713Z,7.72
2023-12-14T11:16:20.831Z,7.80
2023-12-14T11:19:23.719Z,7.83
2023-12-14T11:22:28.501Z,7.82
2023-12-14T11:25:38.868Z,7.66
2023-12-14T11:28:45.088Z,7.74
2023-12-14T11:31:48.152Z,7.71
2023-12-14T11:34:50.859Z,7.91
2023-12-14T11:37:54.117Z,8.05
2023-12-14T11:40:56.847Z,7.93
2023-12-14T11:43:59.600Z,8.00
2023-12-14T11:47:02.020Z,8.07
2023-12-14T11:50:05.001Z,7.85
2023-12-14T11:53:08.564Z,8.01
2023-12-14T11:56:11.660Z,8.06
2023-12-14T11:59:15.636Z,8.07
2023-12-14T12:02:24.478Z,7.93
2023-12-14T12:05:56.646Z,8.05
2023-12-14T12:09:00.032Z,8.04
2023-12-14T12:12:04.341Z,8.06
2023-12-14T12:15:07.105Z,7.94
2023-12-14T12:18:13.497Z,7.95
2023-12-14T12:21:16.149Z,8.09
2023-12-14T12:24:26.680Z,8.03
2023-12-14T12:27:30.243Z,7.98
2023-12-14T12:30:33.406Z,8.20
2023-12-14T12:33:39.037Z,8.35
2023-12-14T12:40:43.597Z,8.12
2023-12-14T12:43:46.641Z,8.21
2023-12-14T12:46:58.065Z,8.44
2023-12-14T12:50:07.695Z,8.94
2023-12-14T12:53:10.357Z,8.64
2023-12-14T12:56:13.054Z,8.51
2023-12-14T12:59:15.762Z,8.43
2023-12-14T13:02:18.741Z,8.47
2023-12-14T13:05:22.036Z,8.51
2023-12-14T13:08:25.245Z,8.47
2023-12-14T13:11:29.131Z,8.56
2023-12-14T13:14:34.745Z,9.05
2023-12-14T13:17:37.643Z,9.41
2023-12-14T13:20:41.173Z,8.85
2023-12-14T13:23:45.161Z,8.58
2023-12-14T13:26:47.841Z,8.55
2023-12-14T13:29:52.781Z,8.35
2023-12-14T13:32:55.704Z,8.29
2023-12-14T13:35:58.299Z,8.26
2023-12-14T13:39:02.937Z,8.10
2023-12-14T13:42:08.077Z,8.17
2023-12-14T13:45:11.198Z,8.27
2023-12-14T13:48:13.930Z,8.22
2023-12-14T13:51:16.849Z,8.22
2023-12-14T13:54:19.532Z,8.02
2023-12-14T13:57:23.138Z,8.11
2023-12-14T14:00:25.627Z,8.08
2023-12-14T14:03:28.816Z,7.96
2023-12-14T14:06:32.086Z,7.93
2023-12-14T14:09:35.029Z,7.87
2023-12-14T14:12:37.958Z,7.73
2023-12-14T14:15:40.967Z,7.73
2023-12-14T14:18:43.347Z,7.61
2023-12-14T14:21:46.302Z,7.51
2023-12-14T14:24:49.063Z,7.44
2023-12-14T14:27:51.807Z,7.27
2023-12-14T14:30:54.190Z,7.24
2023-12-14T14:33:57.234Z,7.15
2023-12-14T14:37:00.866Z,7.00
2023-12-14T14:40:05.891Z,7.01
2023-12-14T14:43:09.657Z,6.97
2023-12-14T14:46:12.665Z,6.95
2023-12-14T14:49:15.233Z,6.88
2023-12-14T14:52:18.125Z,6.92
2023-12-14T14:55:22.819Z,6.84
2023-12-14T14:58:25.512Z,6.84
2023-12-14T15:01:27.888Z,6.90
2023-12-14T15:08:17.395Z,6.81
2023-12-14T15:11:20.380Z,6.81
2023-12-14T15:14:23.236Z,6.81
2023-12-14T15:17:26.863Z,6.78
2023-12-14T15:20:29.637Z,6.77
2023-12-14T15:23:32.250Z,6.82
2023-12-14T15:26:34.611Z,6.91
2023-12-14T15:29:37.506Z,6.91
2023-12-14T15:32:40.177Z,6.83
2023-12-14T15:35:43.395Z,6.79
2023-12-14T15:38:47.294Z,6.75
2023-12-14T15:41:50.141Z,6.66
2023-12-14T15:44:52.586Z,6.70
2023-12-14T15:47:55.638Z,6.75
2023-12-14T15:50:58.301Z,6.71
2023-12-14T15:54:01.318Z,6.62
2023-12-14T15:57:04.135Z,6.55
2023-12-14T16:00:06.984Z,6.45
2023-12-14T16:03:10.783Z,6.43
2023-12-14T16:06:13.779Z,6.45
2023-12-14T16:09:17.187Z,6.40
2023-12-14T16:12:20.653Z,6.36
2023-12-14T16:15:24.083Z,6.37
2023-12-14T16:18:26.854Z,6.40
2023-12-14T16:21:30.804Z,6.40
2023-12-14T16:24:33.578Z,6.30
2023-12-14T16:27:37.987Z,6.30
2023-12-14T16:30:41.343Z,6.31
2023-12-14T16:33:44.232Z,6.24
2023-12-14T16:36:48.327Z,6.18
2023-12-14T16:39:50.829Z,6.10
2023-12-14T16:42:53.739Z,6.07
2023-12-14T16:45:57.106Z,5.99
2023-12-14T16:48:59.728Z,5.90
2023-12-14T16:52:02.954Z,5.90
2023-12-14T16:55:08.936Z,5.94
2023-12-14T16:58:12.665Z,6.02
2023-12-14T17:01:16.387Z,5.94
2023-12-14T17:04:19.093Z,5.82
2023-12-14T17:07:21.967Z,5.92
2023-12-14T17:10:25.301Z,5.97
2023-12-14T17:13:28.221Z,5.95
2023-12-14T17:16:31.316Z,6.19
2023-12-14T17:19:34.229Z,6.19
2023-12-14T17:22:38.830Z,6.14
2023-12-14T17:25:41.828Z,6.19
2023-12-14T17:28:47.905Z,6.18
2023-12-14T17:31:50.904Z,6.10
2023-12-14T17:34:53.697Z,6.15
2023-12-14T17:37:56.681Z,6.21
2023-12-14T17:40:59.415Z,6.14
2023-12-14T17:44:02.391Z,6.08
2023-12-14T17:47:05.528Z,6.05
2023-12-14T17:50:11.251Z,6.02
2023-12-14T17:53:13.956Z,5.92
2023-12-14T17:56:17.109Z,5.88
2023-12-14T17:59:19.750Z,5.80
2023-12-14T18:02:22.648Z,5.71
2023-12-14T18:05:25.415Z,5.63
2023-12-14T18:08:27.875Z,5.66
2023-12-14T18:11:30.841Z,5.63
2023-12-14T18:14:33.445Z,5.53
2023-12-14T18:17:36.826Z,5.46
2023-12-14T18:20:40.023Z,5.44
2023-12-14T18:23:43.152Z,5.44
2023-12-14T18:26:46.290Z,5.41
2023-12-14T18:29:48.969Z,5.25
2023-12-14T18:32:52.667Z,5.34
2023-12-14T18:35:55.691Z,5.39
2023-12-14T18:38:58.074Z,5.33
2023-12-14T18:42:01.046Z,5.31
2023-12-14T18:45:03.824Z,5.29
2023-12-14T18:48:07.515Z,5.27
2023-12-14T18:51:10.422Z,5.19
2023-12-14T18:54:13.538Z,5.25
2023-12-14T18:57:16.933Z,5.30
2023-12-14T19:00:19.843Z,5.30
2023-12-14T19:03:22.411Z,5.36
2023-12-14T19:06:25.164Z,5.40
2023-12-14T19:09:27.567Z,5.39
2023-12-14T19:12:30.191Z,5.33
2023-12-14T19:15:42.988Z,5.34
2023-12-14T19:18:45.939Z,5.34
2023-12-14T19:21:49.030Z,5.32
2023-12-14T19:24:51.823Z,5.35
2023-12-14T19:27:54.240Z,5.37
2023-12-14T19:30:56.905Z,5.36
2023-12-14T19:33:59.329Z,5.27
2023-12-14T19:37:02.265Z,5.16
2023-12-14T19:40:06.063Z,5.07
2023-12-14T19:43:08.972Z,5.04
2023-12-14T19:46:13.785Z,5.05
2023-12-14T19:49:16.677Z,5.09
2023-12-14T19:52:19.157Z,5.16
2023-12-14T19:55:22.128Z,5.25
2023-12-14T19:58:24.505Z,5.24
2023-12-14T20:01:33.969Z,5.13
2023-12-14T20:04:37.000Z,5.03
2023-12-14T20:07:39.982Z,4.95
2023-12-14T20:10:45.332Z,4.84
2023-12-14T20:13:48.130Z,4.83
2023-12-14T20:16:51.613Z,4.83
2023-12-14T20:19:54.187Z,4.84
2023-12-14T20:22:56.936Z,4.89
2023-12-14T20:25:59.569Z,4.88
2023-12-14T20:29:02.264Z,4.79
2023-12-14T20:32:04.930Z,5.00
2023-12-14T20:35:08.049Z,5.06
2023-12-14T20:38:10.681Z,5.08
2023-12-14T20:41:14.749Z,5.01
2023-12-14T20:44:17.611Z,4.97
2023-12-14T20:47:20.561Z,4.85
2023-12-14T20:50:23.027Z,4.69
2023-12-14T20:53:26.094Z,4.54
2023-12-14T20:56:28.787Z,4.48
2023-12-14T20:59:31.816Z,4.45
2023-12-14T21:02:34.416Z,4.27
2023-12-14T21:05:46.059Z,4.31
2023-12-14T21:08:59.358Z,4.30
2023-12-14T21:12:24.500Z,4.26
2023-12-14T21:15:27.138Z,4.15
2023-12-14T21:18:29.918Z,4.03
2023-12-14T21:21:32.408Z,3.95
2023-12-14T21:24:41.616Z,3.89
2023-12-14T21:27:47.942Z,3.89
2023-12-14T21:30:51.372Z,3.79
2023-12-14T21:33:53.771Z,3.80
2023-12-14T21:36:56.516Z,3.83
2023-12-14T21:39:58.833Z,3.82
2023-12-14T21:43:01.460Z,3.82
2023-12-14T21:46:04.127Z,3.81
2023-12-14T21:49:14.497Z,3.85
2023-12-14T21:52:21.386Z,3.86
2023-12-14T21:55:24.375Z,3.89
2023-12-14T21:58:27.029Z,3.96
2023-12-14T22:01:29.836Z,4.26
2023-12-14T22:04:32.797Z,4.53
2023-12-14T22:07:35.864Z,4.80
2023-12-14T22:10:38.650Z,4.92
2023-12-14T22:13:41.278Z,4.93
2023-12-14T22:16:44.632Z,5.08
2023-12-14T22:19:47.001Z,5.10
2023-12-14T22:22:49.690Z,5.15
2023-12-14T22:25:52.201Z,5.15
2023-12-14T22:28:54.999Z,5.22
2023-12-14T22:31:57.765Z,5.19
2023-12-14T22:35:00.631Z,5.28
2023-12-14T22:38:05.379Z,5.28
2023-12-14T22:41:09.160Z,5.46
2023-12-14T22:44:11.767Z,5.50
2023-12-14T22:47:14.854Z,5.52
2023-12-14T22:50:17.755Z,5.51
2023-12-14T22:53:28.023Z,5.48
2023-12-14T22:56:33.393Z,5.43
2023-12-14T22:59:42.248Z,5.55
2023-12-14T23:02:51.005Z,5.49
2023-12-14T23:05:53.797Z,5.41
2023-12-14T23:08:56.115Z,5.47
2023-12-14T23:11:59.378Z,5.60
2023-12-14T23:15:03.998Z,5.65
2023-12-14T23:18:06.957Z,5.80
2023-12-14T23:21:10.030Z,5.82
2023-12-14T23:24:12.680Z,5.80
2023-12-14T23:27:15.235Z,5.75
2023-12-14T23:30:18.356Z,5.77
2023-12-14T23:33:20.860Z,5.87
2023-12-14T23:36:23.930Z,6.01
2023-12-14T23:39:26.472Z,6.01
2023-12-14T23:42:29.392Z,6.07
2023-12-14T23:49:18.419Z,6.04
2023-12-14T23:52:21.125Z,6.05
2023-12-14T23:55:23.414Z,5.99
2023-12-14T23:58:26.214Z,5.99
